sensor_id;sensor_type;location;lat;lon;timestamp;P1;durP1;ratioP1;P2;durP2;ratioP2
10823;SDS011;39116;59.332;18.034;2022-11-20T00:02:04;4.00;;;3.05;;
10823;SDS011;39116;59.332;18.034;2022-11-20T00:04:30;2.97;;;2.67;;
10823;SDS011;39116;59.332;18.034;2022-11-20T00:06:57;4.23;;;3.00;;
10823;SDS011;39116;59.332;18.034;2022-11-20T00:09:23;3.40;;;2.90;;
10823;SDS011;39116;59.332;18.034;2022-11-20T00:11:50;4.23;;;3.20;;
10823;SDS011;39116;59.332;18.034;2022-11-20T00:14:16;2.93;;;2.63;;
10823;SDS011;39116;59.332;18.034;2022-11-20T00:16:43;3.73;;;3.23;;
10823;SDS011;39116;59.332;18.034;2022-11-20T00:19:11;3.50;;;3.17;;
10823;SDS011;39116;59.332;18.034;2022-11-20T00:21:37;4.33;;;3.50;;
10823;SDS011;39116;59.332;18.034;2022-11-20T00:24:04;4.33;;;3.03;;
10823;SDS011;39116;59.332;18.034;2022-11-20T00:26:30;4.77;;;3.13;;
10823;SDS011;39116;59.332;18.034;2022-11-20T00:28:58;3.13;;;2.83;;
10823;SDS011;39116;59.332;18.034;2022-11-20T00:31:24;5.60;;;3.27;;
10823;SDS011;39116;59.332;18.034;2022-11-20T00:33:51;4.17;;;3.07;;
10823;SDS011;39116;59.332;18.034;2022-11-20T00:36:20;4.50;;;3.10;;
10823;SDS011;39116;59.332;18.034;2022-11-20T00:38:50;3.43;;;3.13;;
10823;SDS011;39116;59.332;18.034;2022-11-20T00:41:16;6.83;;;3.83;;
10823;SDS011;39116;59.332;18.034;2022-11-20T00:43:43;4.13;;;3.13;;
10823;SDS011;39116;59.332;18.034;2022-11-20T00:46:10;4.40;;;2.80;;
10823;SDS011;39116;59.332;18.034;2022-11-20T00:48:38;4.13;;;2.90;;
10823;SDS011;39116;59.332;18.034;2022-11-20T00:51:05;4.37;;;3.10;;
10823;SDS011;39116;59.332;18.034;2022-11-20T00:53:33;4.37;;;3.30;;
10823;SDS011;39116;59.332;18.034;2022-11-20T00:56:00;5.60;;;3.10;;
10823;SDS011;39116;59.332;18.034;2022-11-20T00:58:28;3.80;;;3.07;;
10823;SDS011;39116;59.332;18.034;2022-11-20T01:00:59;4.87;;;3.17;;
10823;SDS011;39116;59.332;18.034;2022-11-20T01:03:26;4.77;;;2.93;;
10823;SDS011;39116;59.332;18.034;2022-11-20T01:05:52;4.07;;;3.17;;
10823;SDS011;39116;59.332;18.034;2022-11-20T01:08:19;3.83;;;2.87;;
10823;SDS011;39116;59.332;18.034;2022-11-20T01:10:47;3.50;;;2.93;;
10823;SDS011;39116;59.332;18.034;2022-11-20T01:13:13;4.33;;;3.23;;
10823;SDS011;39116;59.332;18.034;2022-11-20T01:16:01;4.33;;;3.10;;
10823;SDS011;39116;59.332;18.034;2022-11-20T01:18:28;4.53;;;3.00;;
10823;SDS011;39116;59.332;18.034;2022-11-20T01:20:54;3.90;;;3.10;;
10823;SDS011;39116;59.332;18.034;2022-11-20T01:23:21;3.47;;;2.90;;
10823;SDS011;39116;59.332;18.034;2022-11-20T01:25:48;4.03;;;2.87;;
10823;SDS011;39116;59.332;18.034;2022-11-20T01:28:15;4.97;;;2.63;;
10823;SDS011;39116;59.332;18.034;2022-11-20T01:30:41;3.83;;;2.80;;
10823;SDS011;39116;59.332;18.034;2022-11-20T01:33:08;4.07;;;2.87;;
10823;SDS011;39116;59.332;18.034;2022-11-20T01:35:34;4.03;;;2.90;;
10823;SDS011;39116;59.332;18.034;2022-11-20T01:38:01;3.50;;;2.80;;
10823;SDS011;39116;59.332;18.034;2022-11-20T01:40:27;5.23;;;2.80;;
10823;SDS011;39116;59.332;18.034;2022-11-20T01:42:58;4.00;;;2.50;;
10823;SDS011;39116;59.332;18.034;2022-11-20T01:48:28;4.57;;;2.70;;
10823;SDS011;39116;59.332;18.034;2022-11-20T01:50:56;2.77;;;2.57;;
10823;SDS011;39116;59.332;18.034;2022-11-20T01:53:24;3.23;;;2.90;;
10823;SDS011;39116;59.332;18.034;2022-11-20T01:55:52;3.43;;;3.03;;
10823;SDS011;39116;59.332;18.034;2022-11-20T01:58:21;3.50;;;3.00;;
10823;SDS011;39116;59.332;18.034;2022-11-20T02:00:48;4.43;;;3.17;;
10823;SDS011;39116;59.332;18.034;2022-11-20T02:03:16;4.30;;;3.23;;
10823;SDS011;39116;59.332;18.034;2022-11-20T02:05:44;3.60;;;2.90;;
10823;SDS011;39116;59.332;18.034;2022-11-20T02:08:12;5.10;;;3.13;;
10823;SDS011;39116;59.332;18.034;2022-11-20T02:10:38;3.60;;;3.00;;
10823;SDS011;39116;59.332;18.034;2022-11-20T02:13:05;5.17;;;3.37;;
10823;SDS011;39116;59.332;18.034;2022-11-20T02:15:50;3.57;;;2.97;;
10823;SDS011;39116;59.332;18.034;2022-11-20T02:18:18;2.90;;;2.60;;
10823;SDS011;39116;59.332;18.034;2022-11-20T02:20:46;3.73;;;2.93;;
10823;SDS011;39116;59.332;18.034;2022-11-20T02:23:15;4.03;;;2.80;;
10823;SDS011;39116;59.332;18.034;2022-11-20T02:25:44;4.03;;;2.80;;
10823;SDS011;39116;59.332;18.034;2022-11-20T02:28:12;4.00;;;2.90;;
10823;SDS011;39116;59.332;18.034;2022-11-20T02:30:39;3.20;;;2.90;;
10823;SDS011;39116;59.332;18.034;2022-11-20T02:33:05;4.63;;;3.43;;
10823;SDS011;39116;59.332;18.034;2022-11-20T02:35:42;4.73;;;3.10;;
10823;SDS011;39116;59.332;18.034;2022-11-20T02:38:09;4.53;;;3.07;;
10823;SDS011;39116;59.332;18.034;2022-11-20T02:40:36;3.30;;;2.60;;
10823;SDS011;39116;59.332;18.034;2022-11-20T02:43:03;3.03;;;2.43;;
10823;SDS011;39116;59.332;18.034;2022-11-20T02:45:30;4.10;;;2.87;;
10823;SDS011;39116;59.332;18.034;2022-11-20T02:47:57;3.43;;;2.90;;
10823;SDS011;39116;59.332;18.034;2022-11-20T02:50:23;4.80;;;2.80;;
10823;SDS011;39116;59.332;18.034;2022-11-20T02:52:50;3.30;;;2.50;;
10823;SDS011;39116;59.332;18.034;2022-11-20T02:55:16;3.13;;;2.73;;
10823;SDS011;39116;59.332;18.034;2022-11-20T02:57:43;4.80;;;3.03;;
10823;SDS011;39116;59.332;18.034;2022-11-20T03:00:11;3.40;;;2.83;;
10823;SDS011;39116;59.332;18.034;2022-11-20T03:02:38;3.60;;;2.97;;
10823;SDS011;39116;59.332;18.034;2022-11-20T03:05:04;3.10;;;2.80;;
10823;SDS011;39116;59.332;18.034;2022-11-20T03:07:31;3.60;;;2.97;;
10823;SDS011;39116;59.332;18.034;2022-11-20T03:09:58;2.93;;;2.50;;
10823;SDS011;39116;59.332;18.034;2022-11-20T03:12:24;4.90;;;3.80;;
10823;SDS011;39116;59.332;18.034;2022-11-20T03:14:51;4.20;;;3.10;;
10823;SDS011;39116;59.332;18.034;2022-11-20T03:17:19;4.73;;;3.40;;
10823;SDS011;39116;59.332;18.034;2022-11-20T03:19:45;3.47;;;2.97;;
10823;SDS011;39116;59.332;18.034;2022-11-20T03:22:11;4.40;;;3.27;;
10823;SDS011;39116;59.332;18.034;2022-11-20T03:24:38;4.53;;;3.37;;
10823;SDS011;39116;59.332;18.034;2022-11-20T03:27:04;5.47;;;3.60;;
10823;SDS011;39116;59.332;18.034;2022-11-20T03:29:31;3.70;;;2.90;;
10823;SDS011;39116;59.332;18.034;2022-11-20T03:31:58;3.00;;;2.40;;
10823;SDS011;39116;59.332;18.034;2022-11-20T03:34:26;3.10;;;2.70;;
10823;SDS011;39116;59.332;18.034;2022-11-20T03:36:53;3.57;;;2.60;;
10823;SDS011;39116;59.332;18.034;2022-11-20T03:39:19;3.30;;;2.63;;
10823;SDS011;39116;59.332;18.034;2022-11-20T03:41:46;3.23;;;2.87;;
10823;SDS011;39116;59.332;18.034;2022-11-20T03:44:12;3.87;;;3.10;;
10823;SDS011;39116;59.332;18.034;2022-11-20T03:46:39;2.87;;;2.53;;
10823;SDS011;39116;59.332;18.034;2022-11-20T03:49:05;3.70;;;2.50;;
10823;SDS011;39116;59.332;18.034;2022-11-20T03:51:34;5.07;;;2.43;;
10823;SDS011;39116;59.332;18.034;2022-11-20T03:54:01;3.00;;;2.40;;
10823;SDS011;39116;59.332;18.034;2022-11-20T03:56:29;2.67;;;2.30;;
10823;SDS011;39116;59.332;18.034;2022-11-20T03:58:55;3.27;;;2.37;;
10823;SDS011;39116;59.332;18.034;2022-11-20T04:01:23;3.67;;;2.20;;
10823;SDS011;39116;59.332;18.034;2022-11-20T04:03:51;2.13;;;1.90;;
10823;SDS011;39116;59.332;18.034;2022-11-20T04:06:18;3.33;;;2.33;;
10823;SDS011;39116;59.332;18.034;2022-11-20T04:08:47;3.27;;;2.40;;
10823;SDS011;39116;59.332;18.034;2022-11-20T04:11:14;3.23;;;2.27;;
10823;SDS011;39116;59.332;18.034;2022-11-20T04:13:41;2.93;;;2.33;;
10823;SDS011;39116;59.332;18.034;2022-11-20T04:16:08;2.60;;;2.20;;
10823;SDS011;39116;59.332;18.034;2022-11-20T04:18:35;3.63;;;2.00;;
10823;SDS011;39116;59.332;18.034;2022-11-20T04:21:02;2.27;;;2.00;;
10823;SDS011;39116;59.332;18.034;2022-11-20T04:23:28;2.43;;;1.90;;
10823;SDS011;39116;59.332;18.034;2022-11-20T04:26:01;3.80;;;2.00;;
10823;SDS011;39116;59.332;18.034;2022-11-20T04:28:28;3.10;;;2.10;;
10823;SDS011;39116;59.332;18.034;2022-11-20T04:31:01;2.50;;;2.30;;
10823;SDS011;39116;59.332;18.034;2022-11-20T04:33:27;2.03;;;1.87;;
10823;SDS011;39116;59.332;18.034;2022-11-20T04:35:54;2.70;;;1.93;;
10823;SDS011;39116;59.332;18.034;2022-11-20T04:38:20;3.17;;;2.37;;
10823;SDS011;39116;59.332;18.034;2022-11-20T04:40:47;2.20;;;1.90;;
10823;SDS011;39116;59.332;18.034;2022-11-20T04:43:15;1.80;;;1.70;;
10823;SDS011;39116;59.332;18.034;2022-11-20T04:45:41;3.03;;;2.00;;
10823;SDS011;39116;59.332;18.034;2022-11-20T04:48:08;2.20;;;2.00;;
10823;SDS011;39116;59.332;18.034;2022-11-20T04:50:34;3.30;;;2.30;;
10823;SDS011;39116;59.332;18.034;2022-11-20T04:53:05;4.17;;;2.60;;
10823;SDS011;39116;59.332;18.034;2022-11-20T04:55:32;5.17;;;3.33;;
10823;SDS011;39116;59.332;18.034;2022-11-20T04:57:58;9.03;;;4.33;;
10823;SDS011;39116;59.332;18.034;2022-11-20T05:00:26;5.00;;;3.10;;
10823;SDS011;39116;59.332;18.034;2022-11-20T05:02:53;3.00;;;2.30;;
10823;SDS011;39116;59.332;18.034;2022-11-20T05:05:19;4.23;;;3.00;;
10823;SDS011;39116;59.332;18.034;2022-11-20T05:07:46;4.80;;;2.70;;
10823;SDS011;39116;59.332;18.034;2022-11-20T05:10:12;2.97;;;2.10;;
10823;SDS011;39116;59.332;18.034;2022-11-20T05:12:39;2.30;;;2.10;;
10823;SDS011;39116;59.332;18.034;2022-11-20T05:15:06;4.83;;;2.13;;
10823;SDS011;39116;59.332;18.034;2022-11-20T05:17:34;3.43;;;1.80;;
10823;SDS011;39116;59.332;18.034;2022-11-20T05:20:00;2.60;;;2.13;;
10823;SDS011;39116;59.332;18.034;2022-11-20T05:22:27;2.80;;;2.00;;
10823;SDS011;39116;59.332;18.034;2022-11-20T05:24:53;3.27;;;2.23;;
10823;SDS011;39116;59.332;18.034;2022-11-20T05:27:20;3.13;;;2.07;;
10823;SDS011;39116;59.332;18.034;2022-11-20T05:29:46;3.20;;;2.13;;
10823;SDS011;39116;59.332;18.034;2022-11-20T05:32:13;2.10;;;1.90;;
10823;SDS011;39116;59.332;18.034;2022-11-20T05:34:40;2.80;;;1.90;;
10823;SDS011;39116;59.332;18.034;2022-11-20T05:37:07;3.70;;;1.90;;
10823;SDS011;39116;59.332;18.034;2022-11-20T05:39:33;2.40;;;2.13;;
10823;SDS011;39116;59.332;18.034;2022-11-20T05:42:00;1.97;;;1.77;;
10823;SDS011;39116;59.332;18.034;2022-11-20T05:44:44;2.93;;;2.00;;
10823;SDS011;39116;59.332;18.034;2022-11-20T05:47:10;2.17;;;1.70;;
10823;SDS011;39116;59.332;18.034;2022-11-20T05:49:37;2.63;;;1.70;;
10823;SDS011;39116;59.332;18.034;2022-11-20T05:52:05;1.87;;;1.60;;
10823;SDS011;39116;59.332;18.034;2022-11-20T05:54:31;2.50;;;1.60;;
10823;SDS011;39116;59.332;18.034;2022-11-20T05:56:58;2.43;;;2.00;;
10823;SDS011;39116;59.332;18.034;2022-11-20T05:59:24;2.50;;;1.63;;
10823;SDS011;39116;59.332;18.034;2022-11-20T06:01:51;2.47;;;2.00;;
10823;SDS011;39116;59.332;18.034;2022-11-20T06:04:18;3.63;;;2.00;;
10823;SDS011;39116;59.332;18.034;2022-11-20T06:06:44;2.27;;;1.80;;
10823;SDS011;39116;59.332;18.034;2022-11-20T06:09:12;3.07;;;1.97;;
10823;SDS011;39116;59.332;18.034;2022-11-20T06:11:38;2.50;;;1.97;;
10823;SDS011;39116;59.332;18.034;2022-11-20T06:14:05;3.17;;;2.10;;
10823;SDS011;39116;59.332;18.034;2022-11-20T06:16:31;2.37;;;2.17;;
10823;SDS011;39116;59.332;18.034;2022-11-20T06:18:58;3.13;;;1.67;;
10823;SDS011;39116;59.332;18.034;2022-11-20T06:21:24;2.03;;;1.70;;
10823;SDS011;39116;59.332;18.034;2022-11-20T06:23:51;2.07;;;1.87;;
10823;SDS011;39116;59.332;18.034;2022-11-20T06:26:20;1.80;;;1.70;;
10823;SDS011;39116;59.332;18.034;2022-11-20T06:28:47;3.30;;;2.30;;
10823;SDS011;39116;59.332;18.034;2022-11-20T06:31:14;2.57;;;2.10;;
10823;SDS011;39116;59.332;18.034;2022-11-20T06:33:41;2.77;;;2.23;;
10823;SDS011;39116;59.332;18.034;2022-11-20T06:36:09;3.20;;;2.20;;
10823;SDS011;39116;59.332;18.034;2022-11-20T06:38:36;2.60;;;2.40;;
10823;SDS011;39116;59.332;18.034;2022-11-20T06:41:02;3.53;;;2.40;;
10823;SDS011;39116;59.332;18.034;2022-11-20T06:43:30;6.27;;;4.07;;
10823;SDS011;39116;59.332;18.034;2022-11-20T06:45:58;6.90;;;4.33;;
10823;SDS011;39116;59.332;18.034;2022-11-20T06:48:25;4.57;;;3.20;;
10823;SDS011;39116;59.332;18.034;2022-11-20T06:50:52;4.40;;;2.80;;
10823;SDS011;39116;59.332;18.034;2022-11-20T06:53:18;2.53;;;2.33;;
10823;SDS011;39116;59.332;18.034;2022-11-20T06:55:45;3.67;;;2.10;;
10823;SDS011;39116;59.332;18.034;2022-11-20T06:58:12;1.93;;;1.70;;
10823;SDS011;39116;59.332;18.034;2022-11-20T07:00:40;4.67;;;2.20;;
10823;SDS011;39116;59.332;18.034;2022-11-20T07:03:07;3.47;;;1.90;;
10823;SDS011;39116;59.332;18.034;2022-11-20T07:05:34;2.83;;;1.53;;
10823;SDS011;39116;59.332;18.034;2022-11-20T07:08:01;2.23;;;1.83;;
10823;SDS011;39116;59.332;18.034;2022-11-20T07:10:28;1.73;;;1.60;;
10823;SDS011;39116;59.332;18.034;2022-11-20T07:12:54;3.30;;;1.70;;
10823;SDS011;39116;59.332;18.034;2022-11-20T07:15:22;2.07;;;1.77;;
10823;SDS011;39116;59.332;18.034;2022-11-20T07:17:50;2.60;;;2.03;;
10823;SDS011;39116;59.332;18.034;2022-11-20T07:20:16;2.57;;;1.60;;
10823;SDS011;39116;59.332;18.034;2022-11-20T07:22:43;2.63;;;1.73;;
10823;SDS011;39116;59.332;18.034;2022-11-20T07:25:09;2.50;;;1.73;;
10823;SDS011;39116;59.332;18.034;2022-11-20T07:27:36;2.60;;;1.70;;
10823;SDS011;39116;59.332;18.034;2022-11-20T07:30:03;4.00;;;1.50;;
10823;SDS011;39116;59.332;18.034;2022-11-20T07:32:29;4.07;;;1.73;;
10823;SDS011;39116;59.332;18.034;2022-11-20T07:34:57;3.17;;;2.10;;
10823;SDS011;39116;59.332;18.034;2022-11-20T07:37:24;2.00;;;1.77;;
10823;SDS011;39116;59.332;18.034;2022-11-20T07:39:51;2.63;;;1.80;;
10823;SDS011;39116;59.332;18.034;2022-11-20T07:42:17;2.83;;;2.53;;
10823;SDS011;39116;59.332;18.034;2022-11-20T07:44:44;2.67;;;2.03;;
10823;SDS011;39116;59.332;18.034;2022-11-20T07:47:10;2.17;;;1.90;;
10823;SDS011;39116;59.332;18.034;2022-11-20T07:49:36;2.00;;;1.80;;
10823;SDS011;39116;59.332;18.034;2022-11-20T07:52:04;2.40;;;1.77;;
10823;SDS011;39116;59.332;18.034;2022-11-20T07:54:31;2.90;;;1.80;;
10823;SDS011;39116;59.332;18.034;2022-11-20T07:56:58;2.87;;;1.90;;
10823;SDS011;39116;59.332;18.034;2022-11-20T07:59:24;3.27;;;1.70;;
10823;SDS011;39116;59.332;18.034;2022-11-20T08:01:50;2.67;;;1.90;;
10823;SDS011;39116;59.332;18.034;2022-11-20T08:04:17;1.87;;;1.63;;
10823;SDS011;39116;59.332;18.034;2022-11-20T08:06:44;3.63;;;1.80;;
10823;SDS011;39116;59.332;18.034;2022-11-20T08:09:11;2.00;;;1.70;;
10823;SDS011;39116;59.332;18.034;2022-11-20T08:11:38;2.27;;;1.70;;
10823;SDS011;39116;59.332;18.034;2022-11-20T08:14:22;2.13;;;1.63;;
10823;SDS011;39116;59.332;18.034;2022-11-20T08:16:49;2.67;;;1.70;;
10823;SDS011;39116;59.332;18.034;2022-11-20T08:19:16;2.63;;;1.43;;
10823;SDS011;39116;59.332;18.034;2022-11-20T08:21:42;1.67;;;1.50;;
10823;SDS011;39116;59.332;18.034;2022-11-20T08:24:09;3.17;;;1.80;;
10823;SDS011;39116;59.332;18.034;2022-11-20T08:26:38;2.63;;;1.70;;
10823;SDS011;39116;59.332;18.034;2022-11-20T08:29:05;1.70;;;1.60;;
10823;SDS011;39116;59.332;18.034;2022-11-20T08:31:32;1.63;;;1.27;;
10823;SDS011;39116;59.332;18.034;2022-11-20T08:33:59;2.70;;;1.73;;
10823;SDS011;39116;59.332;18.034;2022-11-20T08:36:25;2.90;;;1.60;;
10823;SDS011;39116;59.332;18.034;2022-11-20T08:38:52;3.27;;;1.97;;
10823;SDS011;39116;59.332;18.034;2022-11-20T08:41:19;1.77;;;1.43;;
10823;SDS011;39116;59.332;18.034;2022-11-20T08:43:54;1.90;;;1.30;;
10823;SDS011;39116;59.332;18.034;2022-11-20T08:46:20;2.37;;;1.30;;
10823;SDS011;39116;59.332;18.034;2022-11-20T08:48:47;1.30;;;1.20;;
10823;SDS011;39116;59.332;18.034;2022-11-20T08:51:14;2.07;;;1.63;;
10823;SDS011;39116;59.332;18.034;2022-11-20T08:53:40;3.60;;;2.50;;
10823;SDS011;39116;59.332;18.034;2022-11-20T08:56:07;2.10;;;1.87;;
10823;SDS011;39116;59.332;18.034;2022-11-20T08:58:34;2.50;;;1.80;;
10823;SDS011;39116;59.332;18.034;2022-11-20T09:01:02;3.67;;;1.80;;
10823;SDS011;39116;59.332;18.034;2022-11-20T09:03:29;2.77;;;2.20;;
10823;SDS011;39116;59.332;18.034;2022-11-20T09:05:58;2.53;;;2.00;;
10823;SDS011;39116;59.332;18.034;2022-11-20T09:08:26;3.50;;;1.50;;
10823;SDS011;39116;59.332;18.034;2022-11-20T09:10:53;2.23;;;1.83;;
10823;SDS011;39116;59.332;18.034;2022-11-20T09:13:19;4.77;;;2.20;;
10823;SDS011;39116;59.332;18.034;2022-11-20T09:15:46;2.70;;;2.23;;
10823;SDS011;39116;59.332;18.034;2022-11-20T09:18:14;2.57;;;1.97;;
10823;SDS011;39116;59.332;18.034;2022-11-20T09:20:40;2.30;;;1.70;;
10823;SDS011;39116;59.332;18.034;2022-11-20T09:23:07;2.53;;;1.87;;
10823;SDS011;39116;59.332;18.034;2022-11-20T09:25:33;3.67;;;1.73;;
10823;SDS011;39116;59.332;18.034;2022-11-20T09:28:00;2.90;;;1.77;;
10823;SDS011;39116;59.332;18.034;2022-11-20T09:30:26;4.57;;;2.13;;
10823;SDS011;39116;59.332;18.034;2022-11-20T09:32:53;2.83;;;2.00;;
10823;SDS011;39116;59.332;18.034;2022-11-20T09:35:21;3.43;;;2.10;;
10823;SDS011;39116;59.332;18.034;2022-11-20T09:37:47;3.10;;;1.93;;
10823;SDS011;39116;59.332;18.034;2022-11-20T09:40:17;2.10;;;1.70;;
10823;SDS011;39116;59.332;18.034;2022-11-20T09:42:46;3.80;;;2.13;;
10823;SDS011;39116;59.332;18.034;2022-11-20T09:45:15;2.83;;;2.07;;
10823;SDS011;39116;59.332;18.034;2022-11-20T09:47:49;2.87;;;1.90;;
10823;SDS011;39116;59.332;18.034;2022-11-20T09:50:23;4.40;;;2.30;;
10823;SDS011;39116;59.332;18.034;2022-11-20T09:52:55;4.23;;;2.00;;
10823;SDS011;39116;59.332;18.034;2022-11-20T09:55:25;4.23;;;1.80;;
10823;SDS011;39116;59.332;18.034;2022-11-20T09:57:51;2.77;;;2.10;;
10823;SDS011;39116;59.332;18.034;2022-11-20T10:00:18;4.50;;;1.90;;
10823;SDS011;39116;59.332;18.034;2022-11-20T10:02:47;2.30;;;1.63;;
10823;SDS011;39116;59.332;18.034;2022-11-20T10:05:16;2.87;;;1.60;;
10823;SDS011;39116;59.332;18.034;2022-11-20T10:07:47;2.03;;;1.70;;
10823;SDS011;39116;59.332;18.034;2022-11-20T10:10:15;2.33;;;1.63;;
10823;SDS011;39116;59.332;18.034;2022-11-20T10:12:46;1.80;;;1.50;;
10823;SDS011;39116;59.332;18.034;2022-11-20T10:15:22;2.43;;;1.80;;
10823;SDS011;39116;59.332;18.034;2022-11-20T10:17:54;2.40;;;1.80;;
10823;SDS011;39116;59.332;18.034;2022-11-20T10:20:26;2.70;;;1.63;;
10823;SDS011;39116;59.332;18.034;2022-11-20T10:23:00;2.30;;;1.70;;
10823;SDS011;39116;59.332;18.034;2022-11-20T10:25:31;2.90;;;1.60;;
10823;SDS011;39116;59.332;18.034;2022-11-20T10:28:04;3.43;;;1.67;;
10823;SDS011;39116;59.332;18.034;2022-11-20T10:30:34;2.93;;;1.93;;
10823;SDS011;39116;59.332;18.034;2022-11-20T10:33:03;1.93;;;1.70;;
10823;SDS011;39116;59.332;18.034;2022-11-20T10:35:33;1.57;;;1.40;;
10823;SDS011;39116;59.332;18.034;2022-11-20T10:38:03;3.00;;;1.70;;
10823;SDS011;39116;59.332;18.034;2022-11-20T10:40:32;2.93;;;1.77;;
10823;SDS011;39116;59.332;18.034;2022-11-20T10:43:01;2.33;;;1.40;;
10823;SDS011;39116;59.332;18.034;2022-11-20T10:45:33;2.93;;;1.87;;
10823;SDS011;39116;59.332;18.034;2022-11-20T10:48:07;3.13;;;1.83;;
10823;SDS011;39116;59.332;18.034;2022-11-20T10:50:36;2.13;;;1.60;;
10823;SDS011;39116;59.332;18.034;2022-11-20T10:53:07;1.57;;;1.47;;
10823;SDS011;39116;59.332;18.034;2022-11-20T10:55:39;2.03;;;1.57;;
10823;SDS011;39116;59.332;18.034;2022-11-20T10:58:08;2.00;;;1.70;;
10823;SDS011;39116;59.332;18.034;2022-11-20T11:00:36;2.93;;;1.67;;
10823;SDS011;39116;59.332;18.034;2022-11-20T11:03:06;2.87;;;1.90;;
10823;SDS011;39116;59.332;18.034;2022-11-20T11:05:36;1.80;;;1.50;;
10823;SDS011;39116;59.332;18.034;2022-11-20T11:08:05;3.73;;;1.70;;
10823;SDS011;39116;59.332;18.034;2022-11-20T11:10:36;4.83;;;1.87;;
10823;SDS011;39116;59.332;18.034;2022-11-20T11:13:04;2.50;;;1.90;;
10823;SDS011;39116;59.332;18.034;2022-11-20T11:15:36;2.40;;;2.20;;
10823;SDS011;39116;59.332;18.034;2022-11-20T11:18:03;2.57;;;1.70;;
10823;SDS011;39116;59.332;18.034;2022-11-20T11:20:30;5.37;;;1.90;;
10823;SDS011;39116;59.332;18.034;2022-11-20T11:22:57;4.03;;;1.93;;
10823;SDS011;39116;59.332;18.034;2022-11-20T11:25:26;3.70;;;2.57;;
10823;SDS011;39116;59.332;18.034;2022-11-20T11:27:54;16.37;;;10.67;;
10823;SDS011;39116;59.332;18.034;2022-11-20T11:30:21;6.97;;;4.40;;
10823;SDS011;39116;59.332;18.034;2022-11-20T11:32:48;3.43;;;2.57;;
10823;SDS011;39116;59.332;18.034;2022-11-20T11:35:19;3.30;;;2.23;;
10823;SDS011;39116;59.332;18.034;2022-11-20T11:37:46;3.00;;;2.30;;
10823;SDS011;39116;59.332;18.034;2022-11-20T11:40:14;2.77;;;2.20;;
10823;SDS011;39116;59.332;18.034;2022-11-20T11:42:42;4.07;;;2.07;;
10823;SDS011;39116;59.332;18.034;2022-11-20T11:45:11;4.27;;;2.27;;
10823;SDS011;39116;59.332;18.034;2022-11-20T11:47:43;3.03;;;1.87;;
10823;SDS011;39116;59.332;18.034;2022-11-20T11:50:14;2.67;;;2.13;;
10823;SDS011;39116;59.332;18.034;2022-11-20T11:52:42;3.57;;;2.17;;
10823;SDS011;39116;59.332;18.034;2022-11-20T11:55:12;3.93;;;2.40;;
10823;SDS011;39116;59.332;18.034;2022-11-20T11:57:41;3.67;;;2.00;;
10823;SDS011;39116;59.332;18.034;2022-11-20T12:00:11;4.23;;;2.00;;
10823;SDS011;39116;59.332;18.034;2022-11-20T12:02:41;4.13;;;2.27;;
10823;SDS011;39116;59.332;18.034;2022-11-20T12:05:14;2.97;;;1.87;;
10823;SDS011;39116;59.332;18.034;2022-11-20T12:07:43;2.90;;;1.90;;
10823;SDS011;39116;59.332;18.034;2022-11-20T12:10:14;3.90;;;2.20;;
10823;SDS011;39116;59.332;18.034;2022-11-20T12:12:42;3.83;;;1.90;;
10823;SDS011;39116;59.332;18.034;2022-11-20T12:15:22;3.17;;;1.93;;
10823;SDS011;39116;59.332;18.034;2022-11-20T12:17:49;5.13;;;1.77;;
10823;SDS011;39116;59.332;18.034;2022-11-20T12:20:15;2.63;;;1.97;;
10823;SDS011;39116;59.332;18.034;2022-11-20T12:22:44;3.37;;;2.30;;
10823;SDS011;39116;59.332;18.034;2022-11-20T12:25:16;3.90;;;2.30;;
10823;SDS011;39116;59.332;18.034;2022-11-20T12:27:47;2.47;;;2.03;;
10823;SDS011;39116;59.332;18.034;2022-11-20T12:30:19;3.17;;;1.87;;
10823;SDS011;39116;59.332;18.034;2022-11-20T12:35:31;2.83;;;1.60;;
10823;SDS011;39116;59.332;18.034;2022-11-20T12:38:04;2.77;;;1.70;;
10823;SDS011;39116;59.332;18.034;2022-11-20T12:40:35;3.77;;;2.10;;
10823;SDS011;39116;59.332;18.034;2022-11-20T12:43:10;2.67;;;1.63;;
10823;SDS011;39116;59.332;18.034;2022-11-20T12:48:42;3.33;;;2.07;;
10823;SDS011;39116;59.332;18.034;2022-11-20T12:51:20;2.73;;;2.10;;
10823;SDS011;39116;59.332;18.034;2022-11-20T12:53:51;3.83;;;2.20;;
10823;SDS011;39116;59.332;18.034;2022-11-20T12:56:24;3.80;;;2.07;;
10823;SDS011;39116;59.332;18.034;2022-11-20T12:58:58;3.63;;;2.07;;
10823;SDS011;39116;59.332;18.034;2022-11-20T13:01:29;3.67;;;2.07;;
10823;SDS011;39116;59.332;18.034;2022-11-20T13:04:08;3.50;;;2.33;;
10823;SDS011;39116;59.332;18.034;2022-11-20T13:06:35;4.07;;;2.67;;
10823;SDS011;39116;59.332;18.034;2022-11-20T13:09:02;6.83;;;3.47;;
10823;SDS011;39116;59.332;18.034;2022-11-20T13:11:32;5.07;;;3.40;;
10823;SDS011;39116;59.332;18.034;2022-11-20T13:14:04;5.03;;;2.90;;
10823;SDS011;39116;59.332;18.034;2022-11-20T13:16:36;4.00;;;3.10;;
10823;SDS011;39116;59.332;18.034;2022-11-20T13:19:04;6.03;;;3.20;;
10823;SDS011;39116;59.332;18.034;2022-11-20T13:21:39;5.80;;;3.23;;
10823;SDS011;39116;59.332;18.034;2022-11-20T13:24:06;5.07;;;3.13;;
10823;SDS011;39116;59.332;18.034;2022-11-20T13:26:33;3.83;;;2.30;;
10823;SDS011;39116;59.332;18.034;2022-11-20T13:29:01;3.10;;;2.20;;
10823;SDS011;39116;59.332;18.034;2022-11-20T13:31:29;2.97;;;2.13;;
10823;SDS011;39116;59.332;18.034;2022-11-20T13:33:56;3.27;;;2.33;;
10823;SDS011;39116;59.332;18.034;2022-11-20T13:36:25;3.03;;;2.33;;
10823;SDS011;39116;59.332;18.034;2022-11-20T13:38:54;2.67;;;2.27;;
10823;SDS011;39116;59.332;18.034;2022-11-20T13:41:25;4.23;;;2.60;;
10823;SDS011;39116;59.332;18.034;2022-11-20T13:43:58;3.70;;;2.70;;
10823;SDS011;39116;59.332;18.034;2022-11-20T13:46:34;4.87;;;2.73;;
10823;SDS011;39116;59.332;18.034;2022-11-20T13:49:05;5.03;;;2.90;;
10823;SDS011;39116;59.332;18.034;2022-11-20T13:51:34;2.97;;;2.27;;
10823;SDS011;39116;59.332;18.034;2022-11-20T13:54:13;3.80;;;1.87;;
10823;SDS011;39116;59.332;18.034;2022-11-20T13:56:47;3.73;;;2.33;;
10823;SDS011;39116;59.332;18.034;2022-11-20T13:59:21;5.27;;;2.70;;
10823;SDS011;39116;59.332;18.034;2022-11-20T14:01:52;4.27;;;2.10;;
10823;SDS011;39116;59.332;18.034;2022-11-20T14:04:20;2.87;;;2.00;;
10823;SDS011;39116;59.332;18.034;2022-11-20T14:06:47;3.30;;;2.17;;
10823;SDS011;39116;59.332;18.034;2022-11-20T14:09:25;3.80;;;2.30;;
10823;SDS011;39116;59.332;18.034;2022-11-20T14:11:52;3.50;;;1.90;;
10823;SDS011;39116;59.332;18.034;2022-11-20T14:14:20;2.73;;;2.10;;
10823;SDS011;39116;59.332;18.034;2022-11-20T14:16:47;2.90;;;2.33;;
10823;SDS011;39116;59.332;18.034;2022-11-20T14:19:21;2.30;;;2.00;;
10823;SDS011;39116;59.332;18.034;2022-11-20T14:21:49;3.80;;;2.10;;
10823;SDS011;39116;59.332;18.034;2022-11-20T14:24:18;4.27;;;2.40;;
10823;SDS011;39116;59.332;18.034;2022-11-20T14:26:47;3.90;;;2.57;;
10823;SDS011;39116;59.332;18.034;2022-11-20T14:29:13;2.90;;;2.03;;
10823;SDS011;39116;59.332;18.034;2022-11-20T14:31:40;4.23;;;2.80;;
10823;SDS011;39116;59.332;18.034;2022-11-20T14:34:10;2.90;;;2.27;;
10823;SDS011;39116;59.332;18.034;2022-11-20T14:36:39;3.80;;;2.50;;
10823;SDS011;39116;59.332;18.034;2022-11-20T14:39:07;4.50;;;2.70;;
10823;SDS011;39116;59.332;18.034;2022-11-20T14:41:35;3.87;;;2.80;;
10823;SDS011;39116;59.332;18.034;2022-11-20T14:44:03;4.33;;;2.23;;
10823;SDS011;39116;59.332;18.034;2022-11-20T14:46:30;3.60;;;2.43;;
10823;SDS011;39116;59.332;18.034;2022-11-20T14:49:00;3.90;;;2.40;;